createdAt,value
2022-11-27T00:01:12.033Z,17.05
2022-11-27T00:03:40.116Z,18.55
2022-11-27T00:06:08.306Z,20.70
2022-11-27T00:08:36.160Z,18.42
2022-11-27T00:11:08.118Z,17.52
2022-11-27T00:13:37.402Z,19.73
2022-11-27T00:16:05.974Z,17.70
2022-11-27T00:18:33.884Z,21.02
2022-11-27T00:21:04.062Z,18.13
2022-11-27T00:23:31.930Z,20.65
2022-11-27T00:25:59.828Z,19.75
2022-11-27T00:28:27.663Z,19.77
2022-11-27T00:30:59.393Z,18.08
2022-11-27T00:33:27.270Z,17.92
2022-11-27T00:35:55.288Z,17.58
2022-11-27T00:38:23.199Z,18.02
2022-11-27T00:40:51.063Z,19.67
2022-11-27T00:43:18.912Z,18.33
2022-11-27T00:45:50.026Z,17.55
2022-11-27T00:48:19.209Z,17.38
2022-11-27T00:50:47.054Z,19.08
2022-11-27T00:53:14.915Z,20.20
2022-11-27T00:55:42.753Z,19.30
2022-11-27T00:58:10.588Z,18.73
2022-11-27T01:00:38.452Z,18.55
2022-11-27T01:03:06.442Z,17.33
2022-11-27T01:05:36.929Z,19.02
2022-11-27T01:08:05.133Z,17.95
2022-11-27T01:10:32.987Z,19.42
2022-11-27T01:13:00.844Z,18.17
2022-11-27T01:15:28.659Z,17.52
2022-11-27T01:17:56.506Z,18.13
2022-11-27T01:20:24.605Z,18.23
2022-11-27T01:22:53.831Z,18.60
2022-11-27T01:25:26.668Z,17.45
2022-11-27T01:27:54.875Z,15.70
2022-11-27T01:30:22.726Z,17.50
2022-11-27T01:32:50.564Z,18.38
2022-11-27T01:35:18.540Z,15.77
2022-11-27T01:37:46.435Z,18.80
2022-11-27T01:40:15.787Z,18.65
2022-11-27T01:42:43.666Z,18.95
2022-11-27T01:45:12.177Z,17.38
2022-11-27T01:47:43.800Z,17.50
2022-11-27T01:50:15.128Z,19.95
2022-11-27T01:52:45.622Z,17.50
2022-11-27T01:55:18.932Z,20.23
2022-11-27T01:57:48.570Z,17.95
2022-11-27T02:00:17.424Z,19.27
2022-11-27T02:02:45.462Z,18.58
2022-11-27T02:05:16.537Z,17.77
2022-11-27T02:07:44.624Z,18.20
2022-11-27T02:10:12.771Z,17.70
2022-11-27T02:12:48.638Z,18.55
2022-11-27T02:15:21.228Z,17.20
2022-11-27T02:17:52.853Z,17.85
2022-11-27T02:20:27.712Z,19.38
2022-11-27T02:23:42.582Z,20.55
2022-11-27T02:26:36.186Z,17.50
2022-11-27T02:29:06.402Z,19.50
2022-11-27T02:31:38.545Z,17.83
2022-11-27T02:34:12.747Z,19.60
2022-11-27T02:36:40.597Z,18.13
2022-11-27T02:39:10.074Z,19.58
2022-11-27T02:41:39.631Z,18.70
2022-11-27T02:44:09.274Z,18.77
2022-11-27T02:46:37.214Z,17.52
2022-11-27T02:49:06.196Z,17.00
2022-11-27T02:51:37.282Z,20.02
2022-11-27T02:54:06.679Z,17.88
2022-11-27T02:56:34.631Z,18.27
2022-11-27T02:59:04.109Z,16.60
2022-11-27T03:01:34.586Z,17.08
2022-11-27T03:04:02.964Z,17.67
2022-11-27T03:06:32.754Z,16.98
2022-11-27T03:09:04.142Z,18.58
2022-11-27T03:11:32.039Z,17.30
2022-11-27T03:14:01.926Z,18.13
2022-11-27T03:16:31.720Z,16.60
2022-11-27T03:19:05.630Z,18.02
2022-11-27T03:21:34.828Z,18.55
2022-11-27T03:24:02.733Z,16.80
2022-11-27T03:26:30.805Z,17.08
2022-11-27T03:28:58.682Z,19.17
2022-11-27T03:31:26.580Z,17.63
2022-11-27T03:33:54.576Z,17.50
2022-11-27T03:36:23.991Z,19.92
2022-11-27T03:38:52.407Z,21.85
2022-11-27T03:41:22.582Z,18.50
2022-11-27T03:43:54.121Z,18.67
2022-11-27T03:46:25.053Z,17.73
2022-11-27T03:48:58.149Z,16.63
2022-11-27T03:51:29.564Z,19.50
2022-11-27T03:54:00.336Z,17.80
2022-11-27T03:56:32.905Z,18.00
2022-11-27T03:59:03.462Z,19.58
2022-11-27T04:01:31.427Z,17.60
2022-11-27T04:03:59.376Z,18.20
2022-11-27T04:06:28.674Z,19.58
2022-11-27T04:08:56.545Z,18.00
2022-11-27T04:11:24.441Z,18.33
2022-11-27T04:13:52.892Z,18.50
2022-11-27T04:16:20.842Z,18.33
2022-11-27T04:18:48.788Z,19.15
2022-11-27T04:21:17.346Z,19.38
2022-11-27T04:23:46.521Z,18.08
2022-11-27T04:26:14.376Z,19.73
2022-11-27T04:28:42.216Z,20.63
2022-11-27T04:31:10.171Z,21.10
2022-11-27T04:33:38.177Z,18.08
2022-11-27T04:36:06.859Z,18.67
2022-11-27T04:38:34.685Z,18.13
2022-11-27T04:41:03.869Z,19.00
2022-11-27T04:43:31.739Z,19.58
2022-11-27T04:45:59.595Z,19.40
2022-11-27T04:48:27.731Z,19.02
2022-11-27T04:50:56.428Z,19.38
2022-11-27T04:53:24.257Z,18.33
2022-11-27T04:55:52.329Z,17.42
2022-11-27T04:58:21.535Z,19.77
2022-11-27T05:00:49.530Z,19.10
2022-11-27T05:03:17.591Z,19.67
2022-11-27T05:05:45.497Z,20.33
2022-11-27T05:08:13.379Z,20.10
2022-11-27T05:10:41.240Z,19.25
2022-11-27T05:13:09.084Z,18.98
2022-11-27T05:15:38.252Z,21.10
2022-11-27T05:18:06.522Z,19.17
2022-11-27T05:20:34.401Z,19.23
2022-11-27T05:23:02.265Z,19.60
2022-11-27T05:25:30.123Z,20.08
2022-11-27T05:27:57.975Z,19.13
2022-11-27T05:30:25.867Z,20.63
2022-11-27T05:32:55.075Z,19.73
2022-11-27T05:35:22.907Z,19.33
2022-11-27T05:37:50.735Z,20.63
2022-11-27T05:40:18.720Z,20.85
2022-11-27T05:42:46.571Z,21.00
2022-11-27T05:45:14.411Z,18.63
2022-11-27T05:47:42.278Z,21.10
2022-11-27T05:50:11.827Z,19.27
2022-11-27T05:52:39.649Z,21.58
2022-11-27T05:55:08.428Z,20.38
2022-11-27T05:57:36.325Z,19.67
2022-11-27T06:00:04.839Z,21.42
2022-11-27T06:02:32.737Z,19.10
2022-11-27T06:05:00.751Z,20.10
2022-11-27T06:07:29.974Z,19.70
2022-11-27T06:09:57.866Z,18.80
2022-11-27T06:12:25.688Z,20.98
2022-11-27T06:14:53.533Z,18.48
2022-11-27T06:17:21.370Z,20.45
2022-11-27T06:19:49.321Z,21.60
2022-11-27T06:22:17.150Z,22.08
2022-11-27T06:24:46.327Z,20.75
2022-11-27T06:27:14.147Z,20.55
2022-11-27T06:29:42.071Z,20.15
2022-11-27T06:32:09.988Z,23.30
2022-11-27T06:34:38.015Z,20.95
2022-11-27T06:37:10.377Z,20.45
2022-11-27T06:39:40.780Z,22.83
2022-11-27T06:42:10.036Z,20.08
2022-11-27T06:44:38.053Z,21.42
2022-11-27T06:47:06.065Z,21.70
2022-11-27T06:49:33.963Z,21.17
2022-11-27T06:52:01.825Z,19.58
2022-11-27T06:54:29.704Z,21.88
2022-11-27T06:56:58.364Z,21.25
2022-11-27T06:59:27.609Z,21.00
2022-11-27T07:01:55.556Z,21.45
2022-11-27T07:04:23.569Z,21.98
2022-11-27T07:06:51.532Z,20.25
2022-11-27T07:09:19.373Z,20.77
2022-11-27T07:11:47.192Z,20.45
2022-11-27T07:14:15.068Z,22.95
2022-11-27T07:16:44.302Z,21.13
2022-11-27T07:19:12.176Z,19.95
2022-11-27T07:21:40.466Z,21.77
2022-11-27T07:24:08.945Z,23.75
2022-11-27T07:26:36.817Z,21.65
2022-11-27T07:29:04.718Z,20.23
2022-11-27T07:31:32.641Z,20.70
2022-11-27T07:34:01.893Z,20.88
2022-11-27T07:36:30.595Z,21.80
2022-11-27T07:38:58.960Z,19.85
2022-11-27T07:41:32.298Z,23.80
2022-11-27T07:44:01.707Z,21.30
2022-11-27T07:46:30.111Z,19.77
2022-11-27T07:48:58.111Z,19.52
2022-11-27T07:51:27.317Z,22.38
2022-11-27T07:53:55.183Z,22.88
2022-11-27T07:56:23.080Z,21.25
2022-11-27T07:58:50.908Z,22.05
2022-11-27T08:01:19.571Z,22.50
2022-11-27T08:03:47.525Z,21.95
2022-11-27T08:06:17.012Z,20.70
2022-11-27T08:08:46.353Z,19.95
2022-11-27T08:11:18.855Z,21.50
2022-11-27T08:13:46.746Z,23.77
2022-11-27T08:16:14.685Z,20.38
2022-11-27T08:18:42.643Z,21.20
2022-11-27T08:21:10.670Z,20.50
2022-11-27T08:23:38.501Z,23.73
2022-11-27T08:26:09.346Z,22.00
2022-11-27T08:28:37.308Z,20.55
2022-11-27T08:31:05.748Z,21.60
2022-11-27T08:33:33.721Z,22.58
2022-11-27T08:36:01.753Z,19.38
2022-11-27T08:38:29.657Z,21.20
2022-11-27T08:40:57.837Z,21.05
2022-11-27T08:43:27.023Z,21.92
2022-11-27T08:45:55.062Z,21.00
2022-11-27T08:48:23.135Z,20.15
2022-11-27T08:50:51.561Z,20.33
2022-11-27T08:53:19.460Z,21.33
2022-11-27T08:55:47.510Z,23.10
2022-11-27T08:58:15.401Z,20.52
2022-11-27T09:00:44.645Z,20.63
2022-11-27T09:03:12.894Z,21.77
2022-11-27T09:05:43.447Z,21.23
2022-11-27T09:08:13.507Z,23.30
2022-11-27T09:10:41.399Z,21.90
2022-11-27T09:13:09.258Z,20.05
2022-11-27T09:15:37.122Z,23.30
2022-11-27T09:18:06.406Z,21.77
2022-11-27T09:20:34.245Z,25.17
2022-11-27T09:23:02.862Z,19.92
2022-11-27T09:25:30.761Z,22.73
2022-11-27T09:27:58.653Z,23.52
2022-11-27T09:30:26.489Z,22.40
2022-11-27T09:32:54.358Z,22.77
2022-11-27T09:35:23.583Z,22.70
2022-11-27T09:37:51.505Z,20.15
2022-11-27T09:40:19.465Z,21.15
2022-11-27T09:42:50.047Z,24.38
2022-11-27T09:45:17.919Z,22.67
2022-11-27T09:47:47.470Z,24.70
2022-11-27T09:50:16.411Z,26.92
2022-11-27T09:52:47.521Z,21.60
2022-11-27T09:55:18.246Z,21.73
2022-11-27T09:57:56.522Z,24.05
2022-11-27T10:00:24.741Z,21.02
2022-11-27T10:02:52.709Z,23.20
2022-11-27T10:05:22.208Z,23.30
2022-11-27T10:08:06.730Z,21.50
2022-11-27T10:10:40.523Z,23.25
2022-11-27T10:13:15.606Z,25.08
2022-11-27T10:15:45.006Z,27.85
2022-11-27T10:18:15.851Z,30.08
2022-11-27T10:20:46.830Z,28.23
2022-11-27T10:23:21.745Z,30.23
2022-11-27T10:25:51.873Z,27.08
2022-11-27T10:28:25.641Z,27.80
2022-11-27T10:30:55.319Z,27.35
2022-11-27T10:33:24.899Z,34.55
2022-11-27T10:35:52.772Z,34.60
2022-11-27T10:38:22.892Z,32.25
2022-11-27T10:40:53.436Z,27.67
2022-11-27T10:43:22.233Z,34.13
2022-11-27T10:45:51.131Z,53.25
2022-11-27T10:48:19.136Z,45.38
2022-11-27T10:50:47.178Z,41.35
2022-11-27T10:53:17.573Z,51.83
2022-11-27T10:56:10.848Z,43.58
2022-11-27T10:58:42.739Z,51.22
2022-11-27T11:01:11.582Z,45.25
2022-11-27T11:03:39.504Z,45.38
2022-11-27T11:06:20.776Z,41.55
2022-11-27T11:08:50.131Z,49.88
2022-11-27T11:11:27.517Z,50.95
2022-11-27T11:13:55.854Z,47.92
2022-11-27T11:16:25.823Z,48.53
2022-11-27T11:18:56.018Z,42.45
2022-11-27T11:21:25.682Z,43.85
2022-11-27T11:23:57.322Z,44.20
2022-11-27T11:26:28.737Z,45.25
2022-11-27T11:28:58.526Z,43.40
2022-11-27T11:31:30.212Z,48.90
2022-11-27T11:34:00.115Z,42.40
2022-11-27T11:36:28.074Z,45.15
2022-11-27T11:38:56.073Z,40.05
2022-11-27T11:41:24.505Z,38.25
2022-11-27T11:44:01.198Z,38.33
2022-11-27T11:46:30.804Z,35.25
2022-11-27T11:49:00.942Z,35.50
2022-11-27T11:51:35.829Z,30.25
2022-11-27T11:54:32.842Z,36.63
2022-11-27T11:57:02.523Z,33.17
2022-11-27T11:59:34.741Z,33.40
2022-11-27T12:02:24.486Z,32.13
2022-11-27T12:05:06.183Z,32.30
2022-11-27T12:07:41.060Z,31.75
2022-11-27T12:10:13.126Z,35.83
2022-11-27T12:12:49.073Z,32.88
2022-11-27T12:15:21.617Z,32.50
2022-11-27T12:17:55.107Z,37.70
2022-11-27T12:20:25.494Z,33.00
2022-11-27T12:23:31.344Z,33.30
2022-11-27T12:26:04.994Z,33.85
2022-11-27T12:29:04.100Z,28.02
2022-11-27T12:31:47.676Z,31.30
2022-11-27T12:34:18.919Z,29.92
2022-11-27T12:36:56.446Z,28.15
2022-11-27T12:39:25.820Z,29.98
2022-11-27T12:42:01.808Z,31.23
2022-11-27T12:44:38.781Z,29.30
2022-11-27T12:47:09.705Z,28.65
2022-11-27T12:49:40.887Z,27.27
2022-11-27T12:52:12.639Z,26.65
2022-11-27T12:54:43.588Z,27.70
2022-11-27T12:57:14.479Z,31.67
2022-11-27T12:59:43.871Z,26.70
2022-11-27T13:02:28.493Z,28.20
2022-11-27T13:04:58.796Z,28.42
2022-11-27T13:07:28.805Z,30.50
2022-11-27T13:09:59.044Z,24.52
2022-11-27T13:12:29.770Z,25.55
2022-11-27T13:15:01.639Z,26.73
2022-11-27T13:17:34.449Z,26.48
2022-11-27T13:20:02.370Z,25.42
2022-11-27T13:22:32.104Z,25.92
2022-11-27T13:25:01.691Z,25.08
2022-11-27T13:27:30.266Z,25.95
2022-11-27T13:29:59.898Z,24.52
2022-11-27T13:32:29.066Z,28.30
2022-11-27T13:34:59.772Z,26.75
2022-11-27T13:37:29.788Z,26.00
2022-11-27T13:40:01.833Z,25.73
2022-11-27T13:42:29.711Z,24.20
2022-11-27T13:44:58.233Z,23.45
2022-11-27T13:47:26.752Z,22.63
2022-11-27T13:50:04.037Z,24.70
2022-11-27T13:52:31.889Z,26.80
2022-11-27T13:55:00.594Z,22.60
2022-11-27T13:57:28.974Z,27.15
2022-11-27T14:00:00.820Z,23.02
2022-11-27T14:02:41.426Z,23.98
2022-11-27T14:05:11.159Z,23.95
2022-11-27T14:07:41.301Z,26.00
2022-11-27T14:10:11.431Z,23.25
2022-11-27T14:12:39.328Z,27.55
2022-11-27T14:15:08.817Z,22.42
2022-11-27T14:17:39.048Z,25.05
2022-11-27T14:20:21.477Z,22.15
2022-11-27T14:25:37.968Z,23.23
2022-11-27T14:28:12.066Z,25.05
2022-11-27T14:30:41.700Z,23.58
2022-11-27T14:33:18.088Z,24.27
2022-11-27T14:35:50.686Z,21.27
2022-11-27T14:38:18.630Z,22.83
2022-11-27T14:40:47.215Z,23.73
2022-11-27T14:43:16.555Z,27.02
2022-11-27T14:45:46.084Z,20.67
2022-11-27T14:48:19.459Z,25.13
2022-11-27T14:50:47.524Z,26.00
2022-11-27T14:53:16.786Z,23.08
2022-11-27T14:55:44.641Z,24.85
2022-11-27T14:58:14.005Z,22.92
2022-11-27T15:00:53.525Z,26.95
2022-11-27T15:03:21.431Z,23.55
2022-11-27T15:05:53.847Z,23.85
2022-11-27T15:08:23.103Z,27.88
2022-11-27T15:10:54.039Z,24.05
2022-11-27T15:13:23.849Z,23.33
2022-11-27T15:16:00.150Z,23.02
2022-11-27T15:18:28.120Z,21.98
2022-11-27T15:20:56.082Z,25.10
2022-11-27T15:23:27.843Z,22.38
2022-11-27T15:26:09.685Z,23.35
2022-11-27T15:28:43.230Z,24.98
2022-11-27T15:31:25.316Z,26.15
2022-11-27T15:33:57.282Z,22.80
2022-11-27T15:36:25.331Z,21.85
2022-11-27T15:39:04.263Z,22.00
2022-11-27T15:41:32.206Z,25.40
2022-11-27T15:44:00.186Z,25.05
2022-11-27T15:46:30.208Z,26.73
2022-11-27T15:48:58.144Z,29.45
2022-11-27T15:51:26.026Z,26.35
2022-11-27T15:53:55.207Z,29.67
2022-11-27T15:56:23.078Z,26.67
2022-11-27T15:58:50.920Z,27.48
2022-11-27T16:01:18.898Z,29.58
2022-11-27T16:03:46.861Z,33.40
2022-11-27T16:06:14.823Z,28.42
2022-11-27T16:08:42.712Z,28.02
2022-11-27T16:11:14.127Z,30.77
2022-11-27T16:13:42.032Z,28.55
2022-11-27T16:16:11.425Z,29.27
2022-11-27T16:18:39.284Z,27.27
2022-11-27T16:24:05.157Z,27.55
2022-11-27T16:26:39.507Z,27.10
2022-11-27T16:29:07.527Z,30.17
2022-11-27T16:31:35.464Z,27.80
2022-11-27T16:34:05.763Z,31.75
2022-11-27T16:36:34.866Z,29.83
2022-11-27T16:39:03.410Z,31.52
2022-11-27T16:41:31.630Z,30.98
2022-11-27T16:44:02.469Z,28.35
2022-11-27T16:46:31.349Z,29.48
2022-11-27T16:49:00.771Z,31.40
2022-11-27T16:51:31.989Z,28.50
2022-11-27T16:54:00.587Z,32.72
2022-11-27T16:56:29.807Z,29.83
2022-11-27T16:59:02.642Z,27.35
2022-11-27T17:01:35.744Z,29.42
2022-11-27T17:04:04.712Z,29.83
2022-11-27T17:06:33.628Z,29.20
2022-11-27T17:09:02.524Z,30.30
2022-11-27T17:11:32.989Z,28.15
2022-11-27T17:14:02.681Z,31.65
2022-11-27T17:16:31.209Z,34.53
2022-11-27T17:19:01.187Z,30.33
2022-11-27T17:21:29.930Z,27.25
2022-11-27T17:23:58.483Z,32.13
2022-11-27T17:26:27.171Z,28.48
2022-11-27T17:28:56.273Z,29.35
2022-11-27T17:31:25.247Z,29.25
2022-11-27T17:33:56.547Z,29.90
2022-11-27T17:36:26.475Z,28.00
2022-11-27T17:38:54.564Z,27.25
2022-11-27T17:41:22.478Z,28.27
2022-11-27T17:43:50.759Z,28.92
2022-11-27T17:46:19.878Z,27.05
2022-11-27T17:48:49.408Z,28.70
2022-11-27T17:51:17.365Z,31.42
2022-11-27T17:53:47.793Z,27.45
2022-11-27T17:56:17.150Z,26.40
2022-11-27T17:58:45.218Z,27.52
2022-11-27T18:01:15.750Z,28.25
2022-11-27T18:03:45.997Z,29.17
2022-11-27T18:06:15.545Z,28.25
2022-11-27T18:08:43.499Z,26.90
2022-11-27T18:11:13.750Z,28.42
2022-11-27T18:13:41.983Z,28.88
2022-11-27T18:16:13.214Z,29.15
2022-11-27T18:18:41.327Z,26.70
2022-11-27T18:21:11.893Z,27.05
2022-11-27T18:24:14.397Z,26.23
2022-11-27T18:27:00.604Z,29.70
2022-11-27T18:29:20.983Z,28.20
2022-11-27T18:31:50.257Z,28.85
2022-11-27T18:34:18.248Z,29.05
2022-11-27T18:36:46.202Z,26.67
2022-11-27T18:39:14.656Z,26.65
2022-11-27T18:41:44.041Z,27.40
2022-11-27T18:44:12.680Z,24.77
2022-11-27T18:46:40.655Z,50.78
2022-11-27T18:49:09.283Z,28.23
2022-11-27T18:51:37.196Z,24.92
2022-11-27T18:54:05.242Z,24.15
2022-11-27T18:56:33.293Z,27.60
2022-11-27T18:59:03.915Z,24.38
2022-11-27T19:01:39.578Z,30.08
2022-11-27T19:04:09.190Z,37.45
2022-11-27T19:06:37.357Z,24.67
2022-11-27T19:09:05.476Z,29.67
2022-11-27T19:11:34.018Z,25.35
2022-11-27T19:14:03.350Z,25.92
2022-11-27T19:16:32.372Z,28.70
2022-11-27T19:19:00.493Z,25.77
2022-11-27T19:21:29.459Z,26.40
2022-11-27T19:23:58.253Z,27.42
2022-11-27T19:26:27.027Z,26.77
2022-11-27T19:28:55.772Z,25.13
2022-11-27T19:31:26.218Z,24.50
2022-11-27T19:33:54.275Z,26.42
2022-11-27T19:36:22.197Z,24.05
2022-11-27T19:38:54.759Z,26.65
2022-11-27T19:41:22.667Z,26.45
2022-11-27T19:43:50.555Z,26.15
2022-11-27T19:46:23.032Z,28.05
2022-11-27T19:48:57.297Z,25.27
2022-11-27T19:51:25.304Z,24.63
2022-11-27T19:53:53.735Z,26.10
2022-11-27T19:56:21.881Z,27.60
2022-11-27T19:58:49.727Z,30.20
2022-11-27T20:01:18.536Z,25.23
2022-11-27T20:03:48.223Z,25.73
2022-11-27T20:06:18.729Z,30.15
2022-11-27T20:08:47.863Z,26.08
2022-11-27T20:11:16.569Z,26.77
2022-11-27T20:13:44.487Z,26.60
2022-11-27T20:16:14.664Z,25.98
2022-11-27T20:18:42.884Z,24.98
2022-11-27T20:21:12.004Z,26.20
2022-11-27T20:23:41.293Z,26.08
2022-11-27T20:26:09.932Z,26.60
2022-11-27T20:28:39.462Z,29.63
2022-11-27T20:31:07.429Z,31.05
2022-11-27T20:33:35.866Z,29.70
2022-11-27T20:36:04.430Z,28.45
2022-11-27T20:38:32.428Z,27.67
2022-11-27T20:41:03.731Z,26.13
2022-11-27T20:43:31.845Z,25.98
2022-11-27T20:46:01.067Z,25.30
2022-11-27T20:48:29.150Z,26.65
2022-11-27T20:50:59.571Z,56.53
2022-11-27T20:53:27.614Z,26.50
2022-11-27T20:55:55.515Z,28.45
2022-11-27T20:58:25.159Z,31.08
2022-11-27T21:00:53.359Z,30.50
2022-11-27T21:03:21.382Z,30.17
2022-11-27T21:05:49.337Z,34.20
2022-11-27T21:08:17.437Z,31.15
2022-11-27T21:10:45.392Z,28.65
2022-11-27T21:13:13.241Z,26.75
2022-11-27T21:15:47.101Z,29.63
2022-11-27T21:18:15.000Z,28.35
2022-11-27T21:20:43.059Z,26.70
2022-11-27T21:23:10.931Z,30.25
2022-11-27T21:25:39.391Z,24.90
2022-11-27T21:28:07.357Z,30.73
2022-11-27T21:30:35.223Z,27.88
2022-11-27T21:33:04.512Z,34.17
2022-11-27T21:35:35.648Z,27.70
2022-11-27T21:38:06.431Z,31.90
2022-11-27T21:40:34.276Z,27.60
2022-11-27T21:43:02.144Z,29.13
2022-11-27T21:45:30.436Z,28.83
2022-11-27T21:47:58.436Z,25.05
2022-11-27T21:50:27.732Z,27.70
2022-11-27T21:52:56.831Z,27.00
2022-11-27T21:55:24.786Z,24.13
2022-11-27T21:57:52.648Z,29.85
2022-11-27T22:00:21.230Z,26.25
2022-11-27T22:02:49.138Z,27.38
2022-11-27T22:05:18.594Z,30.38
2022-11-27T22:07:48.002Z,28.92
2022-11-27T22:10:16.222Z,32.33
2022-11-27T22:12:44.104Z,35.58
2022-11-27T22:15:12.511Z,29.90
2022-11-27T22:17:40.581Z,30.98
2022-11-27T22:20:09.522Z,28.92
2022-11-27T22:22:38.451Z,30.13
2022-11-27T22:25:08.359Z,30.88
2022-11-27T22:27:36.241Z,27.92
2022-11-27T22:30:04.385Z,28.85
2022-11-27T22:32:32.728Z,28.48
2022-11-27T22:35:00.741Z,27.77
2022-11-27T22:37:28.647Z,28.23
2022-11-27T22:39:56.551Z,27.52
2022-11-27T22:42:25.713Z,28.33
2022-11-27T22:44:53.600Z,32.83
2022-11-27T22:47:21.493Z,28.60
2022-11-27T22:49:49.486Z,26.42
2022-11-27T22:52:17.387Z,28.50
2022-11-27T22:54:45.332Z,29.45
2022-11-27T22:57:13.933Z,29.40
2022-11-27T22:59:43.241Z,27.48
2022-11-27T23:02:11.444Z,27.33
2022-11-27T23:04:39.543Z,30.23
2022-11-27T23:07:07.461Z,27.92
2022-11-27T23:09:35.833Z,26.00
2022-11-27T23:12:03.852Z,27.20
2022-11-27T23:14:31.713Z,26.02
2022-11-27T23:17:00.998Z,28.15
2022-11-27T23:19:28.898Z,28.80
2022-11-27T23:21:56.765Z,24.95
2022-11-27T23:24:24.620Z,27.60
2022-11-27T23:26:52.486Z,27.60
2022-11-27T23:29:20.333Z,26.55
2022-11-27T23:31:48.243Z,25.70
2022-11-27T23:34:17.501Z,27.63
2022-11-27T23:36:45.784Z,25.80
2022-11-27T23:39:14.118Z,26.95
2022-11-27T23:41:42.253Z,26.58
2022-11-27T23:44:10.084Z,30.30
2022-11-27T23:46:37.912Z,26.52
2022-11-27T23:49:05.849Z,25.90
2022-11-27T23:51:35.240Z,28.02
2022-11-27T23:54:03.082Z,26.90
2022-11-27T23:56:31.932Z,27.63
2022-11-27T23:59:00.044Z,26.10
